createdAt,value
2022-10-19T00:01:27.922Z,83.99
2022-10-19T00:05:26.371Z,83.84
2022-10-19T00:09:24.790Z,83.93
2022-10-19T00:13:23.284Z,84.35
2022-10-19T00:17:21.552Z,84.69
2022-10-19T00:21:20.655Z,85.49
2022-10-19T00:25:19.013Z,86.22
2022-10-19T00:29:17.036Z,86.56
2022-10-19T00:33:21.295Z,86.72
2022-10-19T00:37:19.922Z,87.50
2022-10-19T00:41:19.399Z,87.80
2022-10-19T00:45:18.043Z,87.79
2022-10-19T00:49:18.388Z,87.73
2022-10-19T00:53:16.749Z,87.73
2022-10-19T00:57:15.700Z,88.00
2022-10-19T01:01:18.064Z,88.15
2022-10-19T01:05:16.678Z,88.29
2022-10-19T01:09:20.290Z,88.37
2022-10-19T01:13:12.378Z,88.46
2022-10-19T01:17:18.150Z,88.57
2022-10-19T01:21:35.908Z,88.62
2022-10-19T01:25:34.678Z,88.71
2022-10-19T01:29:33.085Z,88.77
2022-10-19T01:33:35.941Z,88.70
2022-10-19T01:37:39.215Z,88.59
2022-10-19T01:41:48.303Z,88.47
2022-10-19T01:46:05.153Z,88.26
2022-10-19T01:50:13.350Z,88.13
2022-10-19T01:54:14.822Z,88.03
2022-10-19T01:58:18.598Z,87.98
2022-10-19T02:02:17.436Z,87.94
2022-10-19T02:06:16.459Z,87.89
2022-10-19T02:14:23.414Z,87.87
2022-10-19T02:18:28.984Z,87.97
2022-10-19T02:22:28.655Z,88.05
2022-10-19T02:26:28.760Z,88.27
2022-10-19T02:30:32.289Z,88.40
2022-10-19T02:34:35.683Z,88.40
2022-10-19T02:38:40.140Z,88.45
2022-10-19T02:42:47.418Z,88.52
2022-10-19T02:47:01.567Z,88.56
2022-10-19T02:51:01.425Z,88.63
2022-10-19T02:55:00.126Z,88.60
2022-10-19T02:58:58.476Z,88.57
2022-10-19T03:02:56.876Z,88.51
2022-10-19T03:06:55.449Z,88.48
2022-10-19T03:10:54.771Z,88.46
2022-10-19T03:14:54.955Z,88.45
2022-10-19T03:18:53.320Z,88.41
2022-10-19T03:26:51.876Z,88.29
2022-10-19T03:30:50.482Z,88.22
2022-10-19T03:34:48.978Z,88.12
2022-10-19T03:38:50.325Z,88.04
2022-10-19T03:42:48.987Z,87.96
2022-10-19T03:46:47.468Z,87.87
2022-10-19T03:50:46.251Z,87.76
2022-10-19T03:54:45.828Z,87.65
2022-10-19T03:58:46.370Z,87.45
2022-10-19T04:02:45.030Z,87.36
2022-10-19T04:06:44.833Z,87.23
2022-10-19T04:10:46.596Z,87.07
2022-10-19T04:14:56.888Z,86.88
2022-10-19T04:19:01.719Z,86.66
2022-10-19T04:22:41.940Z,86.31
2022-10-19T04:26:15.495Z,86.15
2022-10-19T04:30:18.499Z,85.97
2022-10-19T04:33:53.855Z,85.65
2022-10-19T04:37:57.108Z,85.47
2022-10-19T04:41:39.453Z,85.20
2022-10-19T04:45:11.406Z,84.84
2022-10-19T04:48:48.715Z,84.48
2022-10-19T04:53:11.376Z,84.15
2022-10-19T04:56:28.440Z,83.99
2022-10-19T05:00:30.482Z,83.92
2022-10-19T05:04:06.912Z,83.66
2022-10-19T05:08:05.495Z,83.24
2022-10-19T05:12:09.724Z,82.91
2022-10-19T05:15:56.703Z,82.90
2022-10-19T05:19:20.817Z,82.71
2022-10-19T05:23:19.862Z,82.05
2022-10-19T05:27:18.415Z,81.81
2022-10-19T05:31:18.690Z,81.21
2022-10-19T05:35:21.505Z,81.05
2022-10-19T05:39:24.313Z,81.17
2022-10-19T05:42:59.113Z,81.30
2022-10-19T05:46:57.927Z,81.03
2022-10-19T05:50:57.479Z,81.04
2022-10-19T05:54:56.756Z,80.72
2022-10-19T05:58:59.593Z,80.48
2022-10-19T06:02:59.184Z,80.16
2022-10-19T06:06:58.256Z,79.86
2022-10-19T06:11:05.411Z,79.70
2022-10-19T06:15:09.846Z,79.70
2022-10-19T06:18:43.849Z,79.50
2022-10-19T06:22:44.361Z,78.99
2022-10-19T06:26:20.839Z,79.18
2022-10-19T06:30:22.104Z,79.16
2022-10-19T06:33:58.694Z,78.63
2022-10-19T06:37:59.183Z,78.34
2022-10-19T06:42:10.101Z,78.80
2022-10-19T06:45:45.834Z,79.05
2022-10-19T06:49:18.547Z,79.23
2022-10-19T06:52:56.569Z,79.23
2022-10-19T06:56:30.578Z,79.08
2022-10-19T07:00:30.384Z,78.40
2022-10-19T07:04:29.786Z,77.84
2022-10-19T07:08:29.852Z,76.09
2022-10-19T07:12:29.530Z,76.01
2022-10-19T07:16:28.603Z,76.06
2022-10-19T07:20:27.537Z,76.65
2022-10-19T07:24:26.213Z,76.97
2022-10-19T07:28:25.030Z,77.32
2022-10-19T07:32:23.874Z,77.62
2022-10-19T07:36:23.019Z,77.55
2022-10-19T07:40:22.477Z,77.38
2022-10-19T07:44:21.547Z,77.27
2022-10-19T07:48:20.325Z,76.52
2022-10-19T07:52:19.860Z,75.47
2022-10-19T07:56:24.414Z,75.02
2022-10-19T08:00:24.903Z,74.60
2022-10-19T08:08:43.115Z,74.85
2022-10-19T08:12:41.918Z,74.62
2022-10-19T08:16:44.573Z,74.32
2022-10-19T08:20:44.488Z,73.59
2022-10-19T08:24:43.141Z,73.44
2022-10-19T08:28:42.046Z,72.77
2022-10-19T08:32:40.844Z,72.20
2022-10-19T08:36:39.830Z,71.51
2022-10-19T08:40:39.600Z,71.31
2022-10-19T08:44:57.332Z,69.78
2022-10-19T08:48:57.189Z,68.85
2022-10-19T08:53:06.889Z,68.61
2022-10-19T08:57:14.547Z,67.41
2022-10-19T09:01:39.429Z,66.09
2022-10-19T09:05:56.758Z,64.12
2022-10-19T09:09:59.371Z,65.24
2022-10-19T09:14:10.541Z,64.90
2022-10-19T09:18:21.546Z,64.59
2022-10-19T09:22:22.251Z,64.02
2022-10-19T09:26:22.045Z,63.91
2022-10-19T09:30:21.910Z,63.17
2022-10-19T09:34:30.489Z,63.97
2022-10-19T09:38:29.939Z,64.46
2022-10-19T09:42:37.382Z,65.01
2022-10-19T09:46:43.125Z,64.79
2022-10-19T09:50:45.073Z,65.11
2022-10-19T09:54:45.254Z,65.29
2022-10-19T09:58:58.731Z,66.32
2022-10-19T10:02:58.207Z,66.91
2022-10-19T10:06:58.610Z,67.63
2022-10-19T10:11:20.067Z,67.98
2022-10-19T10:15:22.991Z,68.47
2022-10-19T10:19:28.810Z,68.39
2022-10-19T10:23:32.411Z,68.33
2022-10-19T10:27:37.260Z,67.83
2022-10-19T10:31:11.411Z,67.10
2022-10-19T10:35:22.682Z,67.28
2022-10-19T10:39:41.665Z,67.05
2022-10-19T10:43:03.049Z,67.23
2022-10-19T10:47:06.326Z,67.82
2022-10-19T10:51:09.520Z,67.81
2022-10-19T10:55:08.769Z,67.81
2022-10-19T10:59:20.352Z,67.71
2022-10-19T11:03:23.323Z,67.55
2022-10-19T11:07:24.221Z,67.39
2022-10-19T11:11:27.775Z,66.19
2022-10-19T11:19:41.376Z,66.19
2022-10-19T11:23:58.444Z,65.47
2022-10-19T11:27:59.889Z,65.26
2022-10-19T11:31:58.488Z,64.68
2022-10-19T11:46:33.314Z,65.10
2022-10-19T11:49:50.646Z,64.59
2022-10-19T11:53:49.334Z,64.11
2022-10-19T11:57:47.723Z,64.04
2022-10-19T12:02:05.138Z,63.81
2022-10-19T12:06:23.816Z,63.66
2022-10-19T12:10:41.683Z,62.95
2022-10-19T12:14:42.451Z,63.52
2022-10-19T12:18:56.068Z,63.68
2022-10-19T12:22:54.696Z,63.38
2022-10-19T12:26:54.343Z,63.40
2022-10-19T12:30:53.584Z,63.74
2022-10-19T12:34:52.388Z,63.49
2022-10-19T12:39:00.815Z,63.42
2022-10-19T12:43:15.567Z,63.30
2022-10-19T12:47:20.767Z,63.34
2022-10-19T12:51:18.931Z,63.59
2022-10-19T12:55:26.438Z,63.61
2022-10-19T12:59:26.625Z,64.67
2022-10-19T13:03:29.701Z,65.47
2022-10-19T13:07:31.212Z,66.11
2022-10-19T13:11:30.064Z,66.26
2022-10-19T13:15:34.992Z,66.18
2022-10-19T13:19:33.253Z,66.03
2022-10-19T13:23:31.733Z,66.35
2022-10-19T13:27:36.193Z,66.26
2022-10-19T13:31:34.759Z,65.22
2022-10-19T13:35:35.401Z,65.17
2022-10-19T13:39:39.018Z,64.93
2022-10-19T13:43:43.924Z,64.79
2022-10-19T13:47:48.462Z,65.18
2022-10-19T13:52:10.380Z,65.38
2022-10-19T13:56:11.216Z,64.94
2022-10-19T14:00:21.302Z,64.91
2022-10-19T14:04:29.898Z,65.04
2022-10-19T14:08:54.924Z,65.21
2022-10-19T14:12:59.024Z,65.47
2022-10-19T14:16:36.067Z,65.90
2022-10-19T14:20:37.908Z,66.52
2022-10-19T14:24:37.649Z,66.90
2022-10-19T14:28:38.449Z,66.74
2022-10-19T14:36:49.699Z,66.78
2022-10-19T14:40:51.073Z,67.23
2022-10-19T14:44:51.653Z,67.66
2022-10-19T14:48:52.488Z,67.71
2022-10-19T14:52:57.235Z,67.68
2022-10-19T14:57:08.563Z,67.48
2022-10-19T15:01:07.387Z,67.27
2022-10-19T15:05:07.817Z,66.99
2022-10-19T15:09:15.336Z,67.25
2022-10-19T15:13:28.248Z,67.37
2022-10-19T15:17:26.757Z,67.54
2022-10-19T15:21:25.677Z,68.18
2022-10-19T15:25:24.196Z,68.70
2022-10-19T15:29:24.175Z,69.16
2022-10-19T15:33:23.306Z,69.62
2022-10-19T15:37:23.826Z,69.97
2022-10-19T15:41:26.331Z,70.36
2022-10-19T15:45:38.702Z,70.22
2022-10-19T15:49:43.225Z,70.14
2022-10-19T15:53:42.229Z,70.00
2022-10-19T15:57:40.994Z,69.67
2022-10-19T16:01:39.612Z,69.83
2022-10-19T16:05:38.531Z,70.33
2022-10-19T16:09:37.034Z,70.69
2022-10-19T16:13:35.914Z,70.62
2022-10-19T16:17:38.502Z,70.58
2022-10-19T16:21:50.300Z,70.25
2022-10-19T16:25:57.169Z,69.85
2022-10-19T16:30:00.369Z,70.44
2022-10-19T16:34:03.057Z,71.26
2022-10-19T16:38:02.714Z,71.46
2022-10-19T16:42:11.035Z,71.81
2022-10-19T16:46:10.642Z,72.04
2022-10-19T16:50:12.656Z,72.66
2022-10-19T16:54:14.094Z,73.37
2022-10-19T16:58:13.885Z,73.46
2022-10-19T17:02:15.323Z,73.27
2022-10-19T17:06:15.342Z,73.11
2022-10-19T17:10:16.078Z,73.19
2022-10-19T17:14:23.214Z,73.09
2022-10-19T17:17:56.431Z,73.27
2022-10-19T17:21:58.511Z,73.35
2022-10-19T17:25:58.617Z,73.40
2022-10-19T17:29:59.219Z,73.22
2022-10-19T17:34:19.358Z,73.20
2022-10-19T17:37:40.862Z,73.34
2022-10-19T17:41:39.443Z,73.42
2022-10-19T17:45:37.840Z,73.14
2022-10-19T17:49:37.382Z,72.99
2022-10-19T17:53:35.953Z,73.09
2022-10-19T17:57:36.027Z,73.24
2022-10-19T18:01:35.549Z,73.21
2022-10-19T18:05:34.561Z,73.20
2022-10-19T18:09:33.188Z,73.10
2022-10-19T18:13:32.598Z,73.00
2022-10-19T18:17:31.126Z,72.89
2022-10-19T18:21:32.854Z,72.74
2022-10-19T18:25:53.431Z,72.18
2022-10-19T18:29:12.144Z,71.64
2022-10-19T18:33:11.457Z,70.94
2022-10-19T18:37:09.419Z,70.64
2022-10-19T18:45:15.349Z,70.36
2022-10-19T18:49:14.506Z,70.09
2022-10-19T18:53:14.575Z,69.99
2022-10-19T18:57:16.740Z,69.96
2022-10-19T19:01:03.772Z,69.92
2022-10-19T19:05:08.156Z,69.66
2022-10-19T19:09:08.657Z,69.27
2022-10-19T19:13:08.591Z,69.25
2022-10-19T19:17:09.973Z,68.64
2022-10-19T19:20:46.801Z,68.35
2022-10-19T19:24:52.971Z,68.11
2022-10-19T19:28:54.755Z,67.78
2022-10-19T19:32:58.140Z,67.94
2022-10-19T19:37:01.451Z,67.95
2022-10-19T19:41:06.981Z,68.05
2022-10-19T19:45:08.723Z,67.58
2022-10-19T19:49:08.499Z,67.37
2022-10-19T19:53:09.167Z,66.96
2022-10-19T19:57:10.792Z,66.81
2022-10-19T20:01:13.615Z,66.89
2022-10-19T20:05:13.855Z,67.13
2022-10-19T20:09:20.627Z,66.96
2022-10-19T20:13:00.296Z,66.92
2022-10-19T20:16:35.740Z,66.89
2022-10-19T20:20:37.613Z,66.64
2022-10-19T20:24:13.412Z,66.72
2022-10-19T20:28:15.461Z,66.63
2022-10-19T20:32:28.177Z,66.39
2022-10-19T20:35:57.734Z,66.33
2022-10-19T20:39:56.721Z,66.36
2022-10-19T20:44:14.243Z,66.40
2022-10-19T20:47:32.991Z,66.06
2022-10-19T20:51:33.119Z,65.94
2022-10-19T20:55:33.209Z,65.72
2022-10-19T20:59:33.784Z,65.90
2022-10-19T21:03:32.547Z,65.79
2022-10-19T21:07:49.762Z,65.96
2022-10-19T21:11:12.597Z,65.81
2022-10-19T21:15:11.041Z,65.73
2022-10-19T21:19:13.669Z,65.41
2022-10-19T21:23:15.732Z,64.28
2022-10-19T21:27:19.480Z,64.04
2022-10-19T21:30:53.246Z,63.55
2022-10-19T21:34:51.763Z,63.58
2022-10-19T21:38:49.979Z,63.74
2022-10-19T21:42:48.911Z,63.73
2022-10-19T21:46:48.240Z,64.17
2022-10-19T21:50:49.552Z,64.09
2022-10-19T21:54:51.582Z,64.20
2022-10-19T21:58:53.092Z,64.42
2022-10-19T22:02:55.746Z,64.42
2022-10-19T22:06:56.093Z,64.73
2022-10-19T22:10:55.853Z,64.83
2022-10-19T22:14:54.590Z,64.62
2022-10-19T22:18:54.034Z,64.77
2022-10-19T22:22:54.902Z,64.92
2022-10-19T22:26:53.779Z,65.01
2022-10-19T22:30:53.865Z,65.10
2022-10-19T22:34:54.405Z,65.17
2022-10-19T22:38:55.546Z,65.25
2022-10-19T22:42:54.362Z,65.43
2022-10-19T22:47:12.906Z,65.51
2022-10-19T22:50:32.862Z,65.56
2022-10-19T22:54:32.725Z,65.51
2022-10-19T22:58:34.805Z,65.55
2022-10-19T23:02:39.834Z,65.47
2022-10-19T23:06:16.114Z,65.50
2022-10-19T23:09:52.948Z,65.51
2022-10-19T23:13:29.930Z,65.50
2022-10-19T23:17:32.086Z,65.83
2022-10-19T23:21:36.955Z,65.82
2022-10-19T23:25:10.155Z,65.99
2022-10-19T23:29:12.490Z,66.06
2022-10-19T23:32:47.229Z,66.15
2022-10-19T23:36:45.556Z,66.11
2022-10-19T23:40:44.714Z,66.13
2022-10-19T23:44:45.933Z,66.25
2022-10-19T23:48:49.068Z,66.30
2022-10-19T23:56:56.136Z,66.29
